createdAt,value
2018-09-05T00:01:35.278Z,92
2018-09-05T00:06:35.658Z,92
2018-09-05T00:11:35.707Z,92
2018-09-05T00:16:35.602Z,92
2018-09-05T00:21:36.042Z,92
2018-09-05T00:26:35.565Z,92
2018-09-05T00:31:36.031Z,92
2018-09-05T00:36:35.689Z,92
2018-09-05T00:41:35.089Z,92
2018-09-05T00:46:35.468Z,92
2018-09-05T00:51:35.980Z,92
2018-09-05T00:56:35.675Z,92
2018-09-05T01:01:35.144Z,92
2018-09-05T01:06:35.659Z,92
2018-09-05T01:11:35.564Z,92
2018-09-05T01:16:36.004Z,92
2018-09-05T01:21:35.455Z,92
2018-09-05T01:26:35.863Z,92
2018-09-05T01:31:35.310Z,92
2018-09-05T01:36:35.782Z,92
2018-09-05T01:41:35.246Z,92
2018-09-05T01:46:35.643Z,92
2018-09-05T01:51:36.096Z,92
2018-09-05T01:56:35.578Z,93
2018-09-05T02:01:36.153Z,93
2018-09-05T02:06:36.058Z,92
2018-09-05T02:11:35.899Z,92
2018-09-05T02:16:35.392Z,93
2018-09-05T02:21:35.847Z,93
2018-09-05T02:26:35.308Z,93
2018-09-05T02:31:36.027Z,93
2018-09-05T02:36:35.728Z,93
2018-09-05T02:41:36.280Z,93
2018-09-05T02:46:35.624Z,94
2018-09-05T02:51:36.137Z,94
2018-09-05T02:56:35.745Z,94
2018-09-05T03:01:36.117Z,94
2018-09-05T03:06:35.632Z,94
2018-09-05T03:11:35.545Z,94
2018-09-05T03:16:35.945Z,94
2018-09-05T03:21:35.477Z,94
2018-09-05T03:26:35.860Z,94
2018-09-05T03:31:36.039Z,94
2018-09-05T03:36:35.750Z,94
2018-09-05T03:41:36.297Z,94
2018-09-05T03:46:35.741Z,94
2018-09-05T03:51:36.281Z,94
2018-09-05T03:56:35.851Z,95
2018-09-05T04:01:35.337Z,95
2018-09-05T04:16:36.327Z,95
2018-09-05T04:21:35.919Z,95
2018-09-05T04:26:35.361Z,96
2018-09-05T04:31:35.987Z,96
2018-09-05T04:36:36.227Z,97
2018-09-05T04:41:35.832Z,97
2018-09-05T04:46:35.468Z,97
2018-09-05T04:51:36.141Z,97
2018-09-05T04:56:35.757Z,97
2018-09-05T05:01:36.360Z,97
2018-09-05T05:06:36.202Z,97
2018-09-05T05:11:36.074Z,97
2018-09-05T05:16:35.576Z,97
2018-09-05T05:21:36.092Z,97
2018-09-05T05:26:35.583Z,97
2018-09-05T05:31:36.062Z,97
2018-09-05T05:36:35.689Z,98
2018-09-05T05:41:36.200Z,98
2018-09-05T05:46:35.783Z,97
2018-09-05T05:51:36.317Z,97
2018-09-05T05:56:35.808Z,98
2018-09-05T06:01:36.113Z,98
2018-09-05T06:06:35.808Z,98
2018-09-05T06:11:36.091Z,98
2018-09-05T06:16:36.208Z,98
2018-09-05T06:21:36.004Z,98
2018-09-05T06:26:35.454Z,98
2018-09-05T06:31:36.373Z,98
2018-09-05T06:36:46.337Z,98
2018-09-05T06:41:55.881Z,98
2018-09-05T07:51:47.932Z,98
2018-09-05T07:55:02.512Z,98
2018-09-05T08:00:03.010Z,98
2018-09-05T08:05:03.097Z,98
2018-09-05T08:10:02.719Z,98
2018-09-05T08:15:03.074Z,98
2018-09-05T08:20:02.735Z,98
2018-09-05T08:25:02.704Z,98
2018-09-05T08:30:03.410Z,98
2018-09-05T08:35:02.927Z,98
2018-09-05T08:40:02.636Z,98
2018-09-05T08:45:03.179Z,98
2018-09-05T08:50:02.856Z,98
2018-09-05T08:55:03.186Z,98
2018-09-05T09:00:03.136Z,98
2018-09-05T09:05:02.690Z,99
2018-09-05T09:10:03.438Z,99
2018-09-05T09:15:02.928Z,98
2018-09-05T09:20:03.515Z,98
2018-09-05T09:25:02.864Z,97
2018-09-05T09:30:03.377Z,97
2018-09-05T09:35:03.185Z,95
2018-09-05T09:40:02.659Z,95
2018-09-05T09:45:03.336Z,90
2018-09-05T09:50:02.915Z,90
2018-09-05T09:55:03.406Z,84
2018-09-05T10:00:03.571Z,84
2018-09-05T10:05:03.542Z,83
2018-09-05T10:10:03.740Z,83
2018-09-05T10:15:03.583Z,80
2018-09-05T10:20:03.030Z,80
2018-09-05T10:25:03.137Z,78
2018-09-05T10:30:03.194Z,78
2018-09-05T10:35:02.752Z,77
2018-09-05T10:40:03.241Z,77
2018-09-05T10:45:03.143Z,74
2018-09-05T10:50:03.102Z,74
2018-09-05T10:55:03.513Z,70
2018-09-05T11:00:03.629Z,70
2018-09-05T11:05:03.592Z,71
2018-09-05T11:10:03.119Z,71
2018-09-05T11:15:03.566Z,72
2018-09-05T11:20:02.882Z,72
2018-09-05T11:25:03.579Z,71
2018-09-05T11:30:03.048Z,71
2018-09-05T11:35:03.491Z,70
2018-09-05T11:40:03.219Z,70
2018-09-05T11:45:02.806Z,67
2018-09-05T11:50:03.243Z,67
2018-09-05T11:55:03.019Z,65
2018-09-05T12:00:03.703Z,65
2018-09-05T12:05:03.423Z,64
2018-09-05T12:10:02.948Z,64
2018-09-05T12:15:03.574Z,68
2018-09-05T12:20:03.151Z,68
2018-09-05T12:25:03.596Z,66
2018-09-05T12:30:02.937Z,66
2018-09-05T12:35:02.866Z,63
2018-09-05T12:40:02.964Z,63
2018-09-05T12:45:03.432Z,63
2018-09-05T12:50:02.940Z,63
2018-09-05T12:55:03.401Z,66
2018-09-05T13:00:03.282Z,66
2018-09-05T13:05:03.792Z,63
2018-09-05T13:10:02.856Z,63
2018-09-05T13:15:03.490Z,62
2018-09-05T13:20:03.083Z,62
2018-09-05T13:25:03.430Z,60
2018-09-05T13:30:03.768Z,60
2018-09-05T13:35:03.419Z,58
2018-09-05T13:40:02.881Z,58
2018-09-05T13:45:03.336Z,56
2018-09-05T13:50:03.807Z,56
2018-09-05T13:55:03.479Z,55
2018-09-05T14:00:03.193Z,55
2018-09-05T14:05:03.266Z,55
2018-09-05T14:10:03.140Z,55
2018-09-05T14:15:03.642Z,55
2018-09-05T14:20:03.892Z,55
2018-09-05T14:25:03.357Z,54
2018-09-05T14:30:03.690Z,54
2018-09-05T14:35:03.153Z,55
2018-09-05T14:40:03.669Z,55
2018-09-05T14:45:03.841Z,53
2018-09-05T14:50:03.626Z,53
2018-09-05T14:55:03.756Z,54
2018-09-05T15:00:03.764Z,54
2018-09-05T15:05:03.327Z,55
2018-09-05T15:10:03.274Z,55
2018-09-05T15:15:03.868Z,54
2018-09-05T15:20:03.548Z,54
2018-09-05T15:25:03.250Z,54
2018-09-05T15:30:03.756Z,54
2018-09-05T15:35:03.413Z,54
2018-09-05T15:40:03.514Z,54
2018-09-05T15:45:03.930Z,54
2018-09-05T15:50:03.683Z,54
2018-09-05T15:55:03.338Z,61
2018-09-05T16:00:04.100Z,61
2018-09-05T16:05:03.424Z,64
2018-09-05T16:10:03.959Z,64
2018-09-05T16:15:04.036Z,65
2018-09-05T16:20:03.494Z,65
2018-09-05T16:25:03.424Z,66
2018-09-05T16:30:03.117Z,66
2018-09-05T16:35:03.686Z,68
2018-09-05T16:40:03.186Z,68
2018-09-05T16:45:03.721Z,69
2018-09-05T16:50:03.773Z,69
2018-09-05T16:55:03.446Z,70
2018-09-05T17:00:04.226Z,70
2018-09-05T17:05:03.851Z,71
2018-09-05T17:10:03.208Z,71
2018-09-05T17:15:03.851Z,72
2018-09-05T17:20:03.412Z,72
2018-09-05T17:25:03.968Z,72
2018-09-05T17:30:03.656Z,72
2018-09-05T17:35:03.313Z,73
2018-09-05T17:40:03.744Z,73
2018-09-05T17:45:04.021Z,73
2018-09-05T17:50:03.862Z,73
2018-09-05T17:55:03.448Z,74
2018-09-05T18:00:03.784Z,74
2018-09-05T18:05:03.491Z,74
2018-09-05T18:10:03.364Z,74
2018-09-05T18:15:03.937Z,75
2018-09-05T18:20:03.365Z,75
2018-09-05T18:25:03.855Z,75
2018-09-05T18:30:03.700Z,75
2018-09-05T18:35:03.142Z,76
2018-09-05T18:40:03.637Z,76
2018-09-05T18:45:03.701Z,77
2018-09-05T18:50:03.519Z,77
2018-09-05T18:55:03.918Z,77
2018-09-05T19:00:03.954Z,77
2018-09-05T19:05:03.797Z,78
2018-09-05T19:10:03.583Z,78
2018-09-05T19:15:04.200Z,79
2018-09-05T19:20:03.654Z,79
2018-09-05T19:25:04.089Z,80
2018-09-05T19:30:03.674Z,80
2018-09-05T19:35:03.608Z,81
2018-09-05T19:40:03.622Z,81
2018-09-05T19:45:04.037Z,81
2018-09-05T19:50:04.275Z,81
2018-09-05T19:55:03.787Z,82
2018-09-05T20:00:03.538Z,82
2018-09-05T20:05:04.129Z,83
2018-09-05T20:10:03.780Z,83
2018-09-05T20:15:03.809Z,84
2018-09-05T20:20:03.368Z,84
2018-09-05T20:25:03.924Z,85
2018-09-05T20:30:04.001Z,85
2018-09-05T20:35:03.822Z,85
2018-09-05T20:40:03.380Z,85
2018-09-05T20:45:03.859Z,85
2018-09-05T20:50:04.014Z,85
2018-09-05T20:55:04.000Z,86
2018-09-05T21:00:03.996Z,86
2018-09-05T21:05:03.974Z,86
2018-09-05T21:10:04.370Z,86
2018-09-05T21:15:03.924Z,87
2018-09-05T21:20:04.041Z,87
2018-09-05T21:25:04.053Z,87
2018-09-05T21:30:04.098Z,87
2018-09-05T21:35:03.843Z,87
2018-09-05T21:40:03.841Z,87
2018-09-05T21:45:04.052Z,87
2018-09-05T21:50:03.812Z,87
2018-09-05T21:55:03.500Z,88
2018-09-05T22:00:04.039Z,88
2018-09-05T22:05:03.564Z,89
2018-09-05T22:10:03.996Z,89
2018-09-05T22:15:03.639Z,90
2018-09-05T22:20:04.275Z,90
2018-09-05T22:25:03.758Z,90
2018-09-05T22:30:04.067Z,90
2018-09-05T22:35:03.810Z,91
2018-09-05T22:40:04.206Z,91
2018-09-05T22:45:03.768Z,91
2018-09-05T22:50:04.118Z,91
2018-09-05T22:55:04.401Z,91
2018-09-05T23:00:04.576Z,91
2018-09-05T23:05:03.719Z,90
2018-09-05T23:10:03.605Z,90
2018-09-05T23:15:03.986Z,90
2018-09-05T23:20:03.687Z,90
2018-09-05T23:25:03.779Z,90
2018-09-05T23:30:04.495Z,90
2018-09-05T23:35:03.851Z,90
2018-09-05T23:40:04.041Z,90
2018-09-05T23:45:03.625Z,91
2018-09-05T23:50:04.515Z,91
2018-09-05T23:55:04.029Z,91
